createdAt,value
2018-05-21T00:00:21.893Z,3.10
2018-05-21T00:01:22.002Z,3.20
2018-05-21T00:02:21.918Z,3.50
2018-05-21T00:03:22.109Z,2.90
2018-05-21T00:04:21.946Z,3.00
2018-05-21T00:05:23.056Z,3.00
2018-05-21T00:06:21.955Z,3.20
2018-05-21T00:07:22.041Z,2.70
2018-05-21T00:08:21.984Z,3.30
2018-05-21T00:09:22.056Z,3.00
2018-05-21T00:10:22.010Z,3.30
2018-05-21T00:11:22.069Z,3.00
2018-05-21T00:12:22.032Z,3.00
2018-05-21T00:13:22.188Z,3.40
2018-05-21T00:14:22.047Z,3.00
2018-05-21T00:15:22.200Z,3.40
2018-05-21T00:16:22.074Z,3.00
2018-05-21T00:17:22.222Z,2.90
2018-05-21T00:18:22.122Z,3.30
2018-05-21T00:19:22.224Z,3.50
2018-05-21T00:20:22.119Z,3.30
2018-05-21T00:21:22.122Z,3.10
2018-05-21T00:22:22.139Z,3.10
2018-05-21T00:23:22.251Z,2.90
2018-05-21T00:24:22.167Z,3.50
2018-05-21T00:25:22.272Z,3.10
2018-05-21T00:26:22.178Z,3.10
2018-05-21T00:27:22.329Z,3.40
2018-05-21T00:28:22.208Z,3.40
2018-05-21T00:29:22.288Z,3.20
2018-05-21T00:30:22.220Z,3.20
2018-05-21T00:31:22.260Z,3.00
2018-05-21T00:32:22.357Z,3.00
2018-05-21T00:33:22.271Z,2.80
2018-05-21T00:34:22.326Z,3.20
2018-05-21T00:35:22.275Z,2.80
2018-05-21T00:36:22.452Z,2.70
2018-05-21T00:37:22.300Z,3.00
2018-05-21T00:38:22.311Z,3.40
2018-05-21T00:39:23.394Z,3.40
2018-05-21T00:40:22.372Z,3.00
2018-05-21T00:41:22.502Z,3.20
2018-05-21T00:42:22.364Z,3.10
2018-05-21T00:43:22.509Z,3.20
2018-05-21T00:44:22.407Z,3.00
2018-05-21T00:45:09.687Z,3.40
2018-05-21T00:46:09.538Z,3.20
2018-05-21T00:47:09.621Z,3.10
2018-05-21T00:48:09.568Z,3.40
2018-05-21T00:49:09.686Z,3.20
2018-05-21T00:50:09.590Z,3.30
2018-05-21T00:50:56.897Z,3.90
2018-05-21T00:51:56.783Z,4.00
2018-05-21T00:52:56.853Z,3.40
2018-05-21T00:53:56.841Z,3.70
2018-05-21T00:54:56.989Z,3.30
2018-05-21T00:55:56.822Z,3.50
2018-05-21T00:56:57.928Z,3.30
2018-05-21T00:57:56.864Z,3.20
2018-05-21T00:58:57.011Z,3.30
2018-05-21T00:59:56.872Z,3.30
2018-05-21T01:12:10.878Z,3.40
2018-05-21T01:13:12.969Z,3.20
2018-05-21T01:20:04.586Z,3.10
2018-05-21T01:21:11.588Z,3.20
2018-05-21T01:22:04.579Z,3.20
2018-05-21T01:23:04.749Z,3.20
2018-05-21T01:24:04.599Z,3.20
2018-05-21T01:25:11.522Z,3.10
2018-05-21T01:26:04.626Z,3.40
2018-05-21T01:27:15.530Z,3.40
2018-05-21T01:28:04.640Z,3.20
2018-05-21T01:29:05.815Z,3.00
2018-05-21T01:30:04.660Z,3.40
2018-05-21T01:31:05.828Z,3.30
2018-05-21T01:32:04.678Z,3.10
2018-05-21T01:33:09.469Z,3.60
2018-05-21T01:34:04.693Z,3.00
2018-05-21T01:35:04.843Z,3.20
2018-05-21T01:36:54.134Z,3.20
2018-05-21T01:37:52.998Z,3.40
2018-05-21T01:39:04.141Z,3.50
2018-05-21T01:39:53.032Z,3.20
2018-05-21T01:40:53.126Z,3.30
2018-05-21T01:41:53.050Z,3.00
2018-05-21T01:42:54.236Z,3.20
2018-05-21T01:43:53.089Z,3.40
2018-05-21T01:44:55.193Z,3.20
2018-05-21T01:45:53.094Z,3.60
2018-05-21T01:46:55.283Z,3.40
2018-05-21T01:47:53.101Z,3.10
2018-05-21T01:48:55.296Z,3.10
2018-05-21T01:49:53.133Z,3.40
2018-05-21T01:50:53.262Z,3.10
2018-05-21T01:51:53.151Z,3.30
2018-05-21T01:52:59.118Z,3.20
2018-05-21T01:53:53.173Z,3.30
2018-05-21T01:54:59.131Z,3.30
2018-05-21T02:02:46.929Z,3.20
2018-05-21T02:03:35.506Z,3.30
2018-05-21T02:04:35.649Z,3.10
2018-05-21T02:05:35.526Z,3.30
2018-05-21T02:06:47.537Z,3.20
2018-05-21T02:07:35.554Z,3.30
2018-05-21T02:08:35.733Z,3.10
2018-05-21T02:09:35.563Z,3.20
2018-05-21T02:10:35.697Z,3.10
2018-05-21T02:11:35.579Z,3.10
2018-05-21T02:12:37.749Z,3.20
2018-05-21T02:13:35.620Z,3.00
2018-05-21T02:14:35.728Z,3.20
2018-05-21T02:15:35.624Z,3.20
2018-05-21T02:17:26.719Z,3.60
2018-05-21T02:18:28.789Z,3.40
2018-05-21T02:19:26.727Z,2.70
2018-05-21T02:20:26.859Z,3.00
2018-05-21T02:21:26.690Z,3.50
2018-05-21T02:22:26.716Z,3.40
2018-05-21T02:23:27.909Z,3.10
2018-05-21T02:24:26.732Z,3.60
2018-05-21T02:25:28.931Z,3.20
2018-05-21T02:26:26.773Z,3.00
2018-05-21T02:27:26.896Z,3.10
2018-05-21T02:28:26.756Z,3.20
2018-05-21T02:29:33.879Z,3.00
2018-05-21T02:30:26.793Z,3.20
2018-05-21T02:31:37.895Z,3.00
2018-05-21T02:32:26.816Z,3.00
2018-05-21T02:42:46.818Z,3.30
2018-05-21T02:43:47.999Z,3.40
2018-05-21T02:44:46.814Z,3.50
2018-05-21T02:45:48.935Z,3.10
2018-05-21T02:46:46.832Z,3.00
2018-05-21T02:47:52.535Z,3.20
2018-05-21T02:48:46.888Z,2.80
2018-05-21T02:49:47.094Z,3.40
2018-05-21T02:50:46.866Z,3.20
2018-05-21T02:51:47.060Z,3.50
2018-05-21T02:52:46.897Z,3.20
2018-05-21T02:53:48.069Z,2.90
2018-05-21T02:54:46.923Z,3.00
2018-05-21T02:55:48.082Z,3.20
2018-05-21T02:56:46.942Z,3.20
2018-05-21T02:57:49.102Z,3.10
2018-05-21T02:58:46.952Z,3.00
2018-05-21T02:59:48.127Z,3.20
2018-05-21T03:00:46.969Z,2.90
2018-05-21T03:01:48.118Z,3.20
2018-05-21T03:02:47.390Z,2.90
2018-05-21T03:03:53.052Z,3.20
2018-05-21T03:04:47.025Z,3.20
2018-05-21T03:05:48.147Z,3.50
2018-05-21T03:06:47.030Z,3.20
2018-05-21T03:07:47.255Z,3.50
2018-05-21T03:08:47.053Z,3.10
2018-05-21T03:10:45.470Z,3.20
2018-05-21T03:11:51.257Z,3.20
2018-05-21T03:12:45.469Z,3.30
2018-05-21T03:13:46.665Z,3.10
2018-05-21T03:14:45.504Z,3.50
2018-05-21T03:15:45.656Z,3.00
2018-05-21T03:16:45.518Z,3.40
2018-05-21T03:17:52.221Z,3.80
2018-05-21T03:18:45.519Z,3.20
2018-05-21T03:19:51.212Z,3.30
2018-05-21T03:20:45.567Z,3.40
2018-05-21T03:21:45.568Z,3.10
2018-05-21T03:22:46.674Z,3.40
2018-05-21T03:25:06.153Z,3.40
2018-05-21T03:26:06.155Z,3.30
2018-05-21T03:27:06.182Z,3.00
2018-05-21T03:28:10.833Z,3.10
2018-05-21T03:29:06.155Z,3.30
2018-05-21T03:30:06.285Z,3.40
2018-05-21T03:31:06.185Z,3.10
2018-05-21T03:46:20.443Z,3.50
2018-05-21T03:47:18.509Z,3.50
2018-05-21T03:48:18.693Z,3.00
2018-05-21T03:49:18.529Z,3.10
2018-05-21T03:50:18.704Z,2.90
2018-05-21T03:51:18.546Z,3.50
2018-05-21T03:52:18.716Z,3.00
2018-05-21T03:53:18.566Z,3.50
2018-05-21T03:54:18.728Z,2.90
2018-05-21T03:55:18.581Z,3.20
2018-05-21T03:56:18.752Z,3.10
2018-05-21T03:57:18.603Z,3.00
2018-05-21T03:58:18.613Z,3.40
2018-05-21T03:59:18.774Z,3.30
2018-05-21T04:00:18.639Z,3.30
2018-05-21T04:01:18.648Z,3.40
2018-05-21T04:02:18.806Z,2.90
2018-05-21T04:03:18.681Z,3.20
2018-05-21T04:04:18.805Z,3.20
2018-05-21T04:05:18.683Z,3.20
2018-05-21T04:06:18.832Z,3.10
2018-05-21T04:07:18.695Z,3.30
2018-05-21T04:08:18.749Z,3.40
2018-05-21T04:09:18.736Z,3.10
2018-05-21T04:10:18.736Z,3.20
2018-05-21T04:11:18.852Z,2.80
2018-05-21T04:12:18.757Z,3.10
2018-05-21T04:13:18.869Z,3.20
2018-05-21T04:14:18.781Z,3.60
2018-05-21T04:15:18.873Z,3.20
2018-05-21T04:16:18.796Z,3.00
2018-05-21T04:17:18.995Z,3.00
2018-05-21T04:18:18.816Z,3.50
2018-05-21T04:19:19.019Z,3.50
2018-05-21T04:20:18.838Z,3.30
2018-05-21T04:21:18.838Z,3.50
2018-05-21T04:22:19.038Z,3.40
2018-05-21T04:23:18.859Z,3.50
2018-05-21T04:24:19.048Z,3.30
2018-05-21T04:25:18.877Z,3.30
2018-05-21T04:26:18.890Z,3.00
2018-05-21T04:27:18.899Z,3.10
2018-05-21T04:28:19.077Z,3.20
2018-05-21T04:29:18.912Z,3.60
2018-05-21T04:30:19.082Z,3.30
2018-05-21T04:31:18.935Z,3.70
2018-05-21T04:32:19.105Z,3.50
2018-05-21T04:33:18.951Z,3.20
2018-05-21T04:34:19.114Z,3.50
2018-05-21T04:35:18.983Z,3.30
2018-05-21T04:36:19.209Z,3.30
2018-05-21T04:37:18.991Z,3.20
2018-05-21T04:38:19.248Z,3.30
2018-05-21T04:39:19.006Z,3.40
2018-05-21T04:40:19.158Z,3.70
2018-05-21T04:41:19.031Z,3.60
2018-05-21T04:42:19.171Z,3.30
2018-05-21T04:43:19.050Z,3.70
2018-05-21T04:44:19.057Z,3.20
2018-05-21T04:45:19.090Z,3.70
2018-05-21T04:46:19.196Z,3.20
2018-05-21T04:47:19.102Z,3.30
2018-05-21T04:48:19.210Z,3.50
2018-05-21T04:49:19.104Z,3.40
2018-05-21T04:50:19.110Z,3.30
2018-05-21T04:51:19.342Z,3.90
2018-05-21T04:52:19.134Z,3.70
2018-05-21T04:53:19.346Z,3.80
2018-05-21T04:54:19.151Z,3.50
2018-05-21T04:55:19.357Z,3.70
2018-05-21T04:56:19.166Z,3.70
2018-05-21T04:57:19.372Z,3.60
2018-05-21T04:58:19.193Z,3.40
2018-05-21T04:59:19.388Z,3.70
2018-05-21T05:00:19.209Z,3.50
2018-05-21T05:01:19.400Z,3.50
2018-05-21T05:02:19.226Z,3.50
2018-05-21T05:03:19.415Z,4.10
2018-05-21T05:04:19.250Z,3.60
2018-05-21T05:05:19.426Z,3.60
2018-05-21T05:06:19.263Z,3.50
2018-05-21T05:07:19.448Z,3.70
2018-05-21T05:08:19.317Z,3.40
2018-05-21T05:09:19.452Z,3.40
2018-05-21T05:10:19.316Z,3.50
2018-05-21T05:11:19.465Z,4.00
2018-05-21T05:12:19.335Z,3.50
2018-05-21T05:13:19.478Z,3.50
2018-05-21T05:14:19.348Z,3.90
2018-05-21T05:15:19.516Z,3.70
2018-05-21T05:16:19.355Z,3.50
2018-05-21T05:17:19.512Z,4.00
2018-05-21T05:18:19.380Z,3.70
2018-05-21T05:19:19.523Z,3.40
2018-05-21T05:20:19.398Z,4.10
2018-05-21T05:21:19.402Z,3.60
2018-05-21T05:22:19.434Z,3.80
2018-05-21T05:23:19.423Z,4.10
2018-05-21T05:24:19.665Z,3.80
2018-05-21T05:25:19.453Z,3.40
2018-05-21T05:26:19.685Z,3.70
2018-05-21T05:27:19.452Z,3.80
2018-05-21T05:28:19.687Z,4.00
2018-05-21T05:29:19.476Z,3.70
2018-05-21T05:30:19.611Z,4.10
2018-05-21T05:31:19.507Z,3.80
2018-05-21T05:32:19.629Z,4.20
2018-05-21T05:33:19.517Z,4.10
2018-05-21T05:34:19.620Z,3.80
2018-05-21T05:35:19.541Z,4.10
2018-05-21T05:36:19.635Z,3.90
2018-05-21T05:37:19.557Z,4.00
2018-05-21T05:38:19.656Z,4.00
2018-05-21T05:39:19.571Z,4.50
2018-05-21T05:40:19.766Z,3.90
2018-05-21T05:41:19.598Z,3.80
2018-05-21T05:42:19.680Z,4.10
2018-05-21T05:43:19.633Z,4.20
2018-05-21T05:44:19.700Z,4.20
2018-05-21T05:45:19.640Z,3.90
2018-05-21T05:46:19.646Z,4.20
2018-05-21T05:47:19.658Z,4.10
2018-05-21T05:48:19.727Z,4.20
2018-05-21T05:49:19.665Z,4.20
2018-05-21T05:50:19.728Z,4.00
2018-05-21T05:51:19.702Z,3.80
2018-05-21T05:52:19.743Z,4.50
2018-05-21T05:53:19.720Z,4.40
2018-05-21T05:54:19.762Z,4.10
2018-05-21T05:55:19.719Z,4.20
2018-05-21T05:56:19.776Z,4.70
2018-05-21T05:57:19.745Z,4.90
2018-05-21T05:58:19.794Z,4.30
2018-05-21T05:59:19.755Z,4.50
2018-05-21T06:00:19.918Z,4.30
2018-05-21T06:01:19.799Z,4.50
2018-05-21T06:02:06.959Z,4.50
2018-05-21T06:03:06.846Z,4.90
2018-05-21T06:04:06.930Z,4.50
2018-05-21T06:05:06.862Z,4.70
2018-05-21T06:06:06.943Z,4.50
2018-05-21T06:07:06.879Z,4.30
2018-05-21T06:08:06.894Z,4.50
2018-05-21T06:09:06.905Z,4.30
2018-05-21T06:10:06.971Z,4.40
2018-05-21T06:11:06.928Z,4.30
2018-05-21T06:12:06.985Z,4.30
2018-05-21T06:13:06.937Z,4.30
2018-05-21T06:14:07.006Z,4.60
2018-05-21T06:15:53.949Z,4.60
2018-05-21T06:16:53.966Z,4.60
2018-05-21T06:17:53.965Z,5.00
2018-05-21T06:18:54.025Z,4.90
2018-05-21T06:19:53.956Z,4.90
2018-05-21T06:20:54.052Z,4.90
2018-05-21T06:21:53.988Z,4.80
2018-05-21T06:22:53.993Z,4.50
2018-05-21T06:23:54.067Z,5.00
2018-05-21T06:24:54.015Z,4.70
2018-05-21T06:25:54.153Z,4.40
2018-05-21T06:26:54.026Z,4.80
2018-05-21T06:27:54.154Z,5.00
2018-05-21T06:28:54.071Z,5.20
2018-05-21T06:29:54.282Z,5.10
2018-05-21T06:30:54.084Z,4.90
2018-05-21T06:31:54.297Z,5.20
2018-05-21T06:32:54.093Z,4.90
2018-05-21T06:33:54.371Z,4.80
2018-05-21T06:34:54.097Z,5.10
2018-05-21T06:35:54.321Z,4.80
2018-05-21T06:36:54.127Z,4.60
2018-05-21T06:37:54.336Z,5.10
2018-05-21T06:38:54.139Z,5.00
2018-05-21T06:39:54.147Z,5.00
2018-05-21T06:40:54.228Z,5.20
2018-05-21T06:41:54.189Z,4.70
2018-05-21T06:42:54.375Z,5.50
2018-05-21T06:43:54.186Z,4.90
2018-05-21T06:44:54.381Z,4.90
2018-05-21T06:45:54.212Z,5.00
2018-05-21T06:46:54.219Z,5.30
2018-05-21T06:47:54.241Z,5.70
2018-05-21T06:48:54.241Z,5.10
2018-05-21T06:49:41.236Z,4.80
2018-05-21T06:50:41.113Z,4.90
2018-05-21T06:51:41.048Z,4.70
2018-05-21T06:52:41.093Z,5.30
2018-05-21T06:53:41.055Z,5.20
2018-05-21T06:54:41.080Z,5.30
2018-05-21T06:55:41.152Z,5.40
2018-05-21T06:56:41.087Z,5.60
2018-05-21T06:57:41.153Z,5.80
2018-05-21T06:58:41.105Z,5.10
2018-05-21T06:59:41.120Z,5.10
2018-05-21T07:01:28.115Z,5.70
2018-05-21T07:02:28.008Z,5.40
2018-05-21T07:03:28.030Z,5.10
2018-05-21T07:04:28.016Z,5.20
2018-05-21T07:05:28.089Z,6.00
2018-05-21T07:06:28.039Z,5.20
2018-05-21T07:07:28.115Z,5.20
2018-05-21T07:08:28.054Z,5.40
2018-05-21T07:09:28.130Z,5.70
2018-05-21T07:10:28.099Z,5.80
2018-05-21T07:11:28.143Z,5.30
2018-05-21T07:12:28.098Z,5.30
2018-05-21T07:13:28.156Z,5.40
2018-05-21T07:14:28.161Z,5.90
2018-05-21T07:15:28.134Z,5.30
2018-05-21T07:16:28.195Z,5.90
2018-05-21T07:17:28.144Z,5.30
2018-05-21T07:18:28.150Z,5.20
2018-05-21T07:19:28.160Z,5.40
2018-05-21T07:20:28.223Z,5.30
2018-05-21T07:21:28.183Z,5.50
2018-05-21T07:22:28.212Z,5.40
2018-05-21T07:23:28.205Z,5.30
2018-05-21T07:24:28.307Z,5.60
2018-05-21T07:25:28.222Z,5.90
2018-05-21T07:26:28.342Z,5.50
2018-05-21T07:27:28.245Z,5.50
2018-05-21T07:28:28.252Z,5.20
2018-05-21T07:29:28.259Z,5.20
2018-05-21T07:30:28.276Z,5.20
2018-05-21T07:31:28.305Z,5.50
2018-05-21T07:32:28.298Z,5.50
2018-05-21T07:33:28.306Z,5.50
2018-05-21T07:34:28.319Z,4.90
2018-05-21T07:35:28.401Z,5.30
2018-05-21T07:36:28.325Z,5.60
2018-05-21T07:38:15.396Z,5.50
2018-05-21T07:39:15.363Z,5.40
2018-05-21T07:40:15.369Z,5.30
2018-05-21T07:41:15.365Z,5.60
2018-05-21T07:42:15.385Z,5.10
2018-05-21T07:43:15.381Z,5.50
2018-05-21T07:44:15.397Z,4.90
2018-05-21T07:45:15.410Z,5.50
2018-05-21T07:46:15.416Z,5.40
2018-05-21T07:47:15.425Z,5.30
2018-05-21T07:48:15.436Z,4.90
2018-05-21T07:49:15.506Z,5.40
2018-05-21T07:50:15.459Z,4.90
2018-05-21T07:51:15.469Z,5.50
2018-05-21T07:52:15.474Z,5.20
2018-05-21T07:53:15.491Z,5.20
2018-05-21T07:54:15.508Z,5.10
2018-05-21T07:55:15.509Z,5.80
2018-05-21T07:56:15.516Z,5.20
2018-05-21T07:57:15.523Z,5.70
2018-05-21T07:58:15.595Z,5.90
2018-05-21T07:59:15.542Z,5.10
2018-05-21T08:00:15.653Z,5.40
2018-05-21T08:01:15.558Z,5.40
2018-05-21T08:02:15.585Z,5.00
2018-05-21T08:03:15.579Z,5.30
2018-05-21T08:04:15.609Z,4.90
2018-05-21T08:05:15.678Z,5.70
2018-05-21T08:06:15.631Z,4.70
2018-05-21T08:07:15.620Z,5.20
2018-05-21T08:08:15.640Z,5.00
2018-05-21T08:09:15.749Z,5.70
2018-05-21T08:11:02.588Z,5.30
2018-05-21T08:12:02.494Z,5.20
2018-05-21T08:13:02.491Z,5.30
2018-05-21T08:14:02.624Z,5.80
2018-05-21T08:15:02.535Z,5.00
2018-05-21T08:16:02.648Z,5.20
2018-05-21T08:17:02.515Z,6.30
2018-05-21T08:18:02.563Z,6.10
2018-05-21T08:19:02.539Z,5.70
2018-05-21T08:20:02.575Z,5.80
2018-05-21T08:21:02.789Z,5.90
2018-05-21T08:22:02.608Z,5.70
2018-05-21T08:23:02.574Z,5.60
2018-05-21T08:24:02.808Z,6.00
2018-05-21T08:25:02.595Z,5.80
2018-05-21T08:26:02.634Z,6.20
2018-05-21T08:27:02.820Z,6.10
2018-05-21T08:28:02.625Z,6.20
2018-05-21T08:29:02.803Z,6.10
2018-05-21T08:30:02.787Z,6.10
2018-05-21T08:31:02.660Z,6.00
2018-05-21T08:32:02.691Z,6.10
2018-05-21T08:33:36.352Z,5.60
2018-05-21T09:02:10.401Z,5.30
2018-05-21T09:03:06.904Z,5.20
2018-05-21T09:08:32.863Z,5.20
2018-05-21T09:09:32.831Z,5.80
2018-05-21T09:10:32.827Z,5.10
2018-05-21T09:11:56.399Z,5.10
2018-05-21T09:12:32.855Z,4.90
2018-05-21T09:13:37.389Z,5.40
2018-05-21T09:14:32.829Z,5.00
2018-05-21T09:16:02.873Z,10.80
2018-05-21T09:16:32.939Z,6.40
2018-05-21T09:37:02.940Z,4.70
2018-05-21T09:38:07.800Z,4.60
2018-05-21T09:39:02.972Z,4.60
2018-05-21T09:40:08.833Z,4.80
2018-05-21T09:41:03.001Z,4.30
2018-05-21T09:42:07.967Z,4.60
2018-05-21T09:43:02.961Z,4.60
2018-05-21T09:44:03.061Z,4.20
2018-05-21T09:45:02.983Z,4.40
2018-05-21T09:46:04.084Z,4.30
2018-05-21T09:47:03.038Z,4.50
2018-05-21T09:48:25.213Z,4.60
2018-05-21T09:49:03.039Z,4.20
2018-05-21T09:50:03.053Z,4.50
2018-05-21T09:51:17.837Z,4.40
2018-05-21T09:52:03.074Z,4.10
2018-05-21T09:57:52.055Z,4.80
2018-05-21T09:58:52.199Z,4.40
2018-05-21T10:00:47.470Z,3.80
2018-05-21T10:01:47.337Z,3.80
2018-05-21T10:02:47.367Z,3.60
2018-05-21T10:03:47.381Z,4.10
2018-05-21T10:04:47.427Z,4.10
2018-05-21T10:05:47.690Z,3.70
2018-05-21T10:06:47.404Z,4.00
2018-05-21T10:07:47.566Z,3.60
2018-05-21T10:08:47.434Z,4.30
2018-05-21T10:09:47.453Z,3.80
2018-05-21T10:10:47.451Z,4.20
2018-05-21T10:11:47.465Z,4.00
2018-05-21T10:12:47.467Z,4.10
2018-05-21T10:13:47.497Z,3.80
2018-05-21T10:15:34.579Z,3.80
2018-05-21T10:16:34.600Z,4.00
2018-05-21T10:18:29.727Z,4.30
2018-05-21T10:19:29.840Z,3.80
2018-05-21T10:20:29.804Z,3.40
2018-05-21T10:21:29.817Z,4.30
2018-05-21T10:22:29.802Z,3.90
2018-05-21T10:23:29.767Z,3.60
2018-05-21T10:24:29.802Z,3.70
2018-05-21T10:25:29.785Z,3.80
2018-05-21T10:26:30.865Z,3.80
2018-05-21T10:27:29.860Z,3.70
2018-05-21T10:28:29.876Z,4.00
2018-05-21T10:29:29.886Z,4.30
2018-05-21T10:30:29.869Z,3.90
2018-05-21T10:31:29.888Z,3.80
2018-05-21T10:33:17.284Z,3.60
2018-05-21T10:34:17.096Z,3.90
2018-05-21T10:36:12.269Z,3.90
2018-05-21T10:37:12.250Z,4.00
2018-05-21T10:38:12.285Z,3.30
2018-05-21T10:39:12.276Z,3.70
2018-05-21T10:40:12.270Z,3.60
2018-05-21T10:41:12.288Z,3.40
2018-05-21T10:42:12.386Z,3.50
2018-05-21T10:43:59.178Z,4.10
2018-05-21T10:44:59.074Z,3.80
2018-05-21T10:45:59.087Z,4.30
2018-05-21T10:46:59.180Z,3.50
2018-05-21T10:47:59.103Z,3.60
2018-05-21T10:48:59.199Z,3.60
2018-05-21T10:49:59.135Z,3.40
2018-05-21T10:50:59.291Z,3.70
2018-05-21T10:51:59.178Z,3.80
2018-05-21T10:53:12.080Z,3.80
2018-05-21T10:53:59.196Z,4.20
2018-05-21T10:55:04.041Z,3.70
2018-05-21T10:55:59.214Z,3.80
2018-05-21T11:00:34.841Z,3.80
2018-05-21T11:01:40.554Z,3.30
2018-05-21T11:05:30.575Z,3.40
2018-05-21T11:06:28.591Z,3.90
2018-05-21T11:07:33.592Z,3.60
2018-05-21T11:08:28.607Z,3.50
2018-05-21T11:09:49.657Z,3.30
2018-05-21T11:10:28.642Z,3.30
2018-05-21T11:11:28.779Z,3.20
2018-05-21T11:12:28.660Z,3.60
2018-05-21T11:13:28.795Z,3.40
2018-05-21T11:14:28.709Z,3.40
2018-05-21T11:15:28.697Z,3.30
2018-05-21T11:16:28.813Z,3.20
2018-05-21T11:17:28.739Z,2.90
2018-05-21T11:18:28.733Z,3.70
2018-05-21T11:19:28.767Z,3.30
2018-05-21T11:20:28.804Z,3.80
2018-05-21T11:21:28.858Z,3.20
2018-05-21T11:22:28.784Z,3.40
2018-05-21T11:23:28.809Z,3.30
2018-05-21T11:24:28.924Z,3.00
2018-05-21T11:25:28.846Z,3.10
2018-05-21T11:27:15.638Z,3.40
2018-05-21T11:28:15.630Z,3.80
2018-05-21T11:29:15.634Z,3.30
2018-05-21T11:30:15.665Z,3.30
2018-05-21T11:31:15.660Z,3.40
2018-05-21T11:32:15.684Z,3.20
2018-05-21T11:34:02.877Z,3.10
2018-05-21T11:35:02.903Z,3.20
2018-05-21T11:36:02.899Z,2.90
2018-05-21T11:37:02.878Z,3.10
2018-05-21T11:38:02.916Z,3.30
2018-05-21T11:39:02.919Z,3.20
2018-05-21T11:40:02.963Z,3.30
2018-05-21T11:40:49.733Z,3.40
2018-05-21T11:41:49.724Z,3.50
2018-05-21T11:42:49.733Z,3.20
2018-05-21T11:43:49.774Z,3.30
2018-05-21T11:44:49.746Z,2.80
2018-05-21T11:45:49.759Z,3.10
2018-05-21T11:46:49.785Z,3.30
2018-05-21T11:47:49.797Z,3.10
2018-05-21T11:48:49.803Z,3.30
2018-05-21T11:49:49.812Z,3.30
2018-05-21T11:50:49.846Z,3.30
2018-05-21T11:51:49.859Z,3.10
2018-05-21T11:52:49.840Z,3.00
2018-05-21T11:53:49.863Z,2.90
2018-05-21T11:55:36.927Z,3.00
2018-05-21T11:56:36.957Z,3.60
2018-05-21T11:57:36.916Z,3.20
2018-05-21T11:58:36.935Z,3.10
2018-05-21T11:59:37.095Z,3.00
2018-05-21T12:00:36.990Z,3.30
2018-05-21T12:01:37.128Z,3.30
2018-05-21T12:02:37.136Z,3.00
2018-05-21T12:03:37.065Z,3.30
2018-05-21T12:04:36.995Z,3.00
2018-05-21T12:05:37.056Z,3.30
2018-05-21T12:06:37.044Z,3.80
2018-05-21T12:07:37.097Z,3.40
2018-05-21T12:08:37.072Z,3.60
2018-05-21T12:10:24.845Z,3.00
2018-05-21T12:11:24.457Z,3.40
2018-05-21T12:12:24.437Z,3.30
2018-05-21T12:13:36.301Z,3.10
2018-05-21T12:14:24.446Z,3.20
2018-05-21T12:15:29.309Z,3.30
2018-05-21T12:16:24.473Z,3.80
2018-05-21T12:17:37.311Z,3.70
2018-05-21T12:18:24.539Z,3.50
2018-05-21T12:19:30.289Z,3.30
2018-05-21T12:20:24.535Z,3.50
2018-05-21T12:21:45.562Z,3.70
2018-05-21T12:22:24.658Z,3.30
2018-05-21T12:23:24.574Z,3.20
2018-05-21T12:24:24.665Z,3.40
2018-05-21T12:25:24.598Z,3.10
2018-05-21T12:42:11.319Z,3.00
2018-05-21T12:43:11.471Z,3.20
2018-05-21T12:45:06.683Z,3.20
2018-05-21T12:46:06.662Z,3.20
2018-05-21T12:47:06.843Z,3.50
2018-05-21T12:48:06.711Z,3.80
2018-05-21T12:49:06.873Z,3.50
2018-05-21T12:50:06.717Z,3.40
2018-05-21T12:51:06.878Z,3.30
2018-05-21T12:52:06.749Z,3.00
2018-05-21T12:53:06.759Z,3.40
2018-05-21T12:54:06.779Z,3.40
2018-05-21T12:55:06.797Z,3.10
2018-05-21T12:56:06.801Z,3.20
2018-05-21T12:57:06.813Z,2.70
2018-05-21T12:58:06.848Z,3.00
2018-05-21T12:59:06.982Z,3.10
2018-05-21T13:00:06.849Z,3.20
2018-05-21T13:01:06.993Z,3.20
2018-05-21T13:02:06.920Z,3.00
2018-05-21T13:03:06.935Z,3.30
2018-05-21T13:04:53.757Z,3.30
2018-05-21T13:05:54.738Z,3.60
2018-05-21T13:06:53.658Z,3.30
2018-05-21T13:07:53.690Z,3.20
2018-05-21T13:08:53.695Z,3.30
2018-05-21T13:09:53.705Z,3.20
2018-05-21T13:10:53.709Z,3.10
2018-05-21T13:11:53.727Z,3.20
2018-05-21T13:12:53.760Z,3.00
2018-05-21T13:13:53.748Z,3.40
2018-05-21T13:14:53.771Z,3.20
2018-05-21T13:15:53.804Z,3.40
2018-05-21T13:16:53.818Z,3.20
2018-05-21T13:17:40.890Z,3.30
2018-05-21T13:18:40.829Z,3.10
2018-05-21T13:19:40.854Z,3.00
2018-05-21T13:20:40.905Z,2.90
2018-05-21T13:21:40.872Z,2.90
2018-05-21T13:22:41.024Z,2.90
2018-05-21T13:23:40.889Z,2.90
2018-05-21T13:24:40.918Z,2.90
2018-05-21T13:25:41.110Z,2.70
2018-05-21T13:26:40.977Z,3.10
2018-05-21T13:27:40.955Z,3.10
2018-05-21T13:28:41.079Z,3.10
2018-05-21T13:29:40.973Z,2.90
2018-05-21T13:30:40.993Z,3.00
2018-05-21T13:31:41.076Z,2.80
2018-05-21T13:32:41.019Z,2.80
2018-05-21T13:33:41.031Z,3.40
2018-05-21T13:34:41.119Z,2.80
2018-05-21T13:35:41.125Z,3.00
2018-05-21T13:36:41.068Z,3.10
2018-05-21T13:37:41.126Z,2.90
2018-05-21T13:38:41.123Z,3.30
2018-05-21T13:39:41.107Z,2.80
2018-05-21T13:40:41.126Z,2.80
2018-05-21T13:41:41.134Z,3.00
2018-05-21T13:42:41.159Z,2.70
2018-05-21T13:43:41.165Z,3.00
2018-05-21T13:44:41.269Z,3.30
2018-05-21T13:45:41.185Z,3.00
2018-05-21T13:46:41.208Z,3.20
2018-05-21T13:47:41.239Z,3.30
2018-05-21T13:48:41.247Z,3.00
2018-05-21T13:49:41.251Z,2.80
2018-05-21T13:50:41.270Z,2.80
2018-05-21T13:51:41.276Z,2.90
2018-05-21T13:52:41.298Z,2.90
2018-05-21T13:53:41.318Z,3.10
2018-05-21T13:55:28.496Z,3.30
2018-05-21T13:56:28.483Z,3.20
2018-05-21T13:57:28.487Z,2.90
2018-05-21T13:58:28.501Z,3.10
2018-05-21T13:59:28.522Z,2.70
2018-05-21T14:00:28.539Z,2.80
2018-05-21T14:01:28.558Z,2.90
2018-05-21T14:02:28.563Z,3.40
2018-05-21T14:03:28.714Z,3.00
2018-05-21T14:04:28.676Z,2.80
2018-05-21T14:05:28.605Z,2.90
2018-05-21T14:06:28.632Z,2.60
2018-05-21T14:07:28.650Z,2.80
2018-05-21T14:08:28.648Z,2.80
2018-05-21T14:09:28.678Z,3.00
2018-05-21T14:10:28.686Z,3.00
2018-05-21T14:11:28.704Z,2.90
2018-05-21T14:12:28.705Z,3.00
2018-05-21T14:13:28.738Z,2.90
2018-05-21T14:14:28.726Z,3.10
2018-05-21T14:15:28.752Z,2.60
2018-05-21T14:16:28.776Z,3.00
2018-05-21T14:17:28.835Z,3.10
2018-05-21T14:18:28.795Z,3.30
2018-05-21T14:19:28.821Z,3.10
2018-05-21T14:20:28.830Z,3.10
2018-05-21T14:21:28.860Z,3.00
2018-05-21T14:22:28.910Z,3.00
2018-05-21T14:23:28.871Z,3.10
2018-05-21T14:24:28.871Z,2.60
2018-05-21T14:25:28.899Z,2.80
2018-05-21T14:26:28.902Z,3.00
2018-05-21T14:27:28.934Z,3.00
2018-05-21T14:28:28.976Z,2.90
2018-05-21T14:29:29.014Z,2.90
2018-05-21T14:30:29.009Z,2.80
2018-05-21T14:31:28.976Z,2.80
2018-05-21T14:33:16.398Z,2.90
2018-05-21T14:34:16.283Z,2.80
2018-05-21T14:35:16.263Z,2.70
2018-05-21T14:36:16.344Z,3.00
2018-05-21T14:37:16.305Z,3.10
2018-05-21T14:38:16.354Z,2.90
2018-05-21T14:39:16.339Z,2.90
2018-05-21T14:40:17.430Z,3.00
2018-05-21T14:41:16.353Z,2.80
2018-05-21T14:42:16.408Z,3.10
2018-05-21T14:43:16.390Z,2.70
2018-05-21T14:45:03.477Z,3.50
2018-05-21T14:46:03.534Z,3.70
2018-05-21T14:47:03.490Z,2.50
2018-05-21T14:48:03.537Z,3.00
2018-05-21T14:49:03.501Z,2.70
2018-05-21T14:50:03.555Z,2.80
2018-05-21T14:51:03.527Z,2.90
2018-05-21T14:52:03.567Z,3.10
2018-05-21T14:53:03.564Z,3.10
2018-05-21T14:54:03.689Z,3.00
2018-05-21T14:55:03.603Z,2.80
2018-05-21T14:56:03.644Z,2.90
2018-05-21T14:57:03.622Z,3.30
2018-05-21T14:58:03.640Z,3.00
2018-05-21T14:59:03.729Z,3.10
2018-05-21T15:00:03.680Z,3.30
2018-05-21T15:01:03.683Z,3.20
2018-05-21T15:02:03.702Z,3.10
2018-05-21T15:03:03.699Z,3.20
2018-05-21T15:04:50.522Z,3.30
2018-05-21T15:05:50.488Z,3.40
2018-05-21T15:06:50.502Z,2.80
2018-05-21T15:07:50.517Z,2.70
2018-05-21T15:08:50.527Z,2.90
2018-05-21T15:09:50.627Z,3.00
2018-05-21T15:10:50.586Z,2.90
2018-05-21T15:11:50.592Z,2.60
2018-05-21T15:12:50.622Z,3.00
2018-05-21T15:13:50.633Z,3.20
2018-05-21T15:14:50.615Z,3.10
2018-05-21T15:15:50.635Z,3.00
2018-05-21T15:16:50.652Z,2.80
2018-05-21T15:17:50.678Z,3.10
2018-05-21T15:18:50.695Z,3.00
2018-05-21T15:19:50.779Z,2.70
2018-05-21T15:20:50.712Z,2.90
2018-05-21T15:21:50.783Z,3.10
2018-05-21T15:23:37.640Z,2.80
2018-05-21T15:24:37.520Z,2.90
2018-05-21T15:25:37.553Z,2.90
2018-05-21T15:26:37.569Z,2.80
2018-05-21T15:27:37.552Z,2.80
2018-05-21T15:28:37.750Z,3.20
2018-05-21T15:29:37.599Z,2.70
2018-05-21T15:30:37.606Z,2.80
2018-05-21T15:31:37.707Z,2.90
2018-05-21T15:32:37.628Z,2.70
2018-05-21T15:33:37.737Z,3.00
2018-05-21T15:34:37.683Z,3.00
2018-05-21T15:35:37.836Z,2.80
2018-05-21T15:36:37.681Z,2.60
2018-05-21T15:37:37.708Z,2.60
2018-05-21T15:38:37.708Z,2.80
2018-05-21T15:39:37.772Z,2.90
2018-05-21T15:40:37.746Z,3.00
2018-05-21T15:41:37.884Z,2.70
2018-05-21T15:42:37.777Z,3.00
2018-05-21T15:43:37.963Z,2.80
2018-05-21T15:44:37.806Z,2.60